Time;durP1;ratioP1;P1;durP2;ratioP2;P2;SDS_P1;SDS_P2;PMS_P1;PMS_P2;Temp;Humidity;BMP_temperature;BMP_pressure;BME280_temperature;BME280_humidity;BME280_pressure;Samples;Min_cycle;Max_cycle;Signal;HPM_P1;HPM_P2
2022/06/07 00:00:05;;;;;;;6.30;6.00;;;;;;;14.97;100.00;100846.03;5050262;28;20047;-61
2022/06/07 00:02:33;;;;;;;6.00;5.80;;;;;;;14.88;100.00;100839.19;5053438;28;20515;-60
2022/06/07 00:04:59;;;;;;;5.97;5.78;;;;;;;14.93;100.00;100850.13;5053613;28;20036;-62
2022/06/07 00:07:26;;;;;;;6.40;6.10;;;;;;;14.75;100.00;100852.44;5050269;28;20029;-60
2022/06/07 00:09:52;;;;;;;6.13;5.93;;;;;;;14.66;100.00;100846.44;5040734;28;20017;-61
2022/06/07 00:12:18;;;;;;;6.10;5.90;;;;;;;14.59;100.00;100841.03;5053130;28;20028;-60
2022/06/07 00:14:44;;;;;;;6.22;6.00;;;;;;;14.57;100.00;100843.06;5054670;28;20025;-60
2022/06/07 00:17:11;;;;;;;6.22;6.00;;;;;;;14.41;100.00;100835.31;5052275;28;20065;-61
2022/06/07 00:19:37;;;;;;;6.20;5.95;;;;;;;14.45;100.00;100833.91;5054598;28;20025;-61
2022/06/07 00:22:04;;;;;;;6.38;6.07;;;;;;;14.49;100.00;100834.38;5053548;28;20087;-61
2022/06/07 00:24:30;;;;;;;5.97;5.78;;;;;;;14.47;100.00;100826.56;5049815;28;20028;-61
2022/06/07 00:26:56;;;;;;;6.10;5.90;;;;;;;14.50;100.00;100823.50;5063319;28;20052;-61
2022/06/07 00:29:23;;;;;;;6.00;5.80;;;;;;;14.58;100.00;100834.03;5054539;28;20746;-61
2022/06/07 00:31:49;;;;;;;6.03;5.82;;;;;;;14.58;100.00;100830.56;5054723;28;20090;-61
2022/06/07 00:34:15;;;;;;;5.97;5.78;;;;;;;14.54;100.00;100829.28;5053588;28;20492;-61
2022/06/07 00:36:41;;;;;;;5.95;5.75;;;;;;;14.49;100.00;100829.88;5052954;28;20071;-61
2022/06/07 00:39:07;;;;;;;6.68;6.38;;;;;;;14.49;100.00;100829.03;5053029;28;20773;-61
2022/06/07 00:41:34;;;;;;;6.10;5.90;;;;;;;14.38;100.00;100833.84;5054096;28;20072;-60
2022/06/07 00:44:21;;;;;;;6.25;6.00;;;;;;;14.27;100.00;100831.69;5061713;28;20028;-62
2022/06/07 00:46:48;;;;;;;6.05;5.85;;;;;;;14.24;100.00;100829.38;5053917;28;20102;-61
2022/06/07 00:49:17;;;;;;;6.00;5.80;;;;;;;14.30;100.00;100822.47;5054114;28;20388;-61
2022/06/07 00:51:46;;;;;;;6.30;6.00;;;;;;;14.29;100.00;100826.16;5053285;28;20040;-61
2022/06/07 00:54:25;;;;;;;6.00;5.80;;;;;;;14.27;100.00;100820.19;5053945;28;20032;-61
2022/06/07 00:56:52;;;;;;;6.55;6.25;;;;;;;14.25;100.00;100820.41;5051979;28;20025;-61
2022/06/07 00:59:17;;;;;;;5.95;5.75;;;;;;;14.17;100.00;100819.69;5054491;28;20070;-61
2022/06/07 01:01:43;;;;;;;6.15;5.95;;;;;;;14.11;100.00;100813.28;5053805;28;20020;-61
2022/06/07 01:04:09;;;;;;;6.43;6.13;;;;;;;14.08;100.00;100816.31;5053713;28;20485;-61
2022/06/07 01:12:04;;;;;;;6.60;6.30;;;;;;;14.08;100.00;100811.81;5053223;28;20100;-61
2022/06/07 01:14:29;;;;;;;6.50;6.20;;;;;;;14.07;100.00;100815.50;5047360;28;20041;-60
2022/06/07 01:16:55;;;;;;;6.10;5.90;;;;;;;14.03;100.00;100811.56;5054140;28;20396;-60
2022/06/07 01:19:20;;;;;;;6.30;6.00;;;;;;;13.97;100.00;100822.16;5053671;28;20021;-61
2022/06/07 01:21:46;;;;;;;5.78;5.57;;;;;;;13.90;100.00;100819.44;5053752;28;20396;-61
2022/06/07 01:24:16;;;;;;;6.25;6.00;;;;;;;14.00;100.00;100822.59;5051900;28;20064;-61
2022/06/07 01:26:42;;;;;;;6.07;5.88;;;;;;;14.01;100.00;100815.41;5051942;28;20447;-61
2022/06/07 01:29:08;;;;;;;5.90;5.70;;;;;;;14.04;100.00;100826.56;5053649;28;20028;-61
2022/06/07 01:31:33;;;;;;;6.10;5.90;;;;;;;14.06;100.00;100821.84;5046040;28;20048;-61
2022/06/07 01:34:00;;;;;;;6.00;5.80;;;;;;;14.05;100.00;100824.72;5052460;28;20488;-62
2022/06/07 01:36:26;;;;;;;6.00;5.80;;;;;;;14.05;100.00;100822.03;5050491;28;20043;-62
2022/06/07 01:41:55;;;;;;;6.00;5.80;;;;;;;14.02;100.00;100827.75;5052098;28;20564;-60
2022/06/07 01:44:42;;;;;;;5.85;5.65;;;;;;;14.00;100.00;100825.28;5053037;28;20035;-62
2022/06/07 01:47:12;;;;;;;6.07;5.88;;;;;;;13.93;100.00;100824.38;5053094;28;20037;-60
2022/06/07 01:49:38;;;;;;;6.05;5.85;;;;;;;13.89;100.00;100823.13;5049027;28;20112;-61
2022/06/07 01:52:06;;;;;;;6.43;6.13;;;;;;;13.88;100.00;100823.28;5052795;28;20111;-60
2022/06/07 01:54:32;;;;;;;5.88;5.68;;;;;;;13.82;100.00;100820.38;5051849;28;20100;-60
2022/06/07 01:56:58;;;;;;;6.10;5.90;;;;;;;13.71;100.00;100815.53;5052461;28;20029;-60
2022/06/07 01:59:23;;;;;;;5.90;5.70;;;;;;;13.67;100.00;100816.09;5051614;28;20175;-60
2022/06/07 02:01:51;;;;;;;6.03;5.82;;;;;;;13.60;100.00;100824.03;5052517;28;20032;-60
2022/06/07 02:04:17;;;;;;;6.32;6.03;;;;;;;13.53;100.00;100812.44;5051369;28;20032;-61
2022/06/07 02:06:42;;;;;;;5.90;5.70;;;;;;;13.52;100.00;100816.97;5052289;28;20037;-60
2022/06/07 02:09:10;;;;;;;5.93;5.72;;;;;;;13.52;100.00;100810.81;5053244;28;20016;-61
2022/06/07 02:11:37;;;;;;;6.40;6.10;;;;;;;13.53;100.00;100812.44;5052479;28;20017;-60
2022/06/07 02:14:03;;;;;;;6.20;6.00;;;;;;;13.58;100.00;100811.88;5051384;28;20024;-61
2022/06/07 02:16:29;;;;;;;6.32;6.03;;;;;;;13.57;100.00;100796.91;5039101;28;20108;-61
2022/06/07 02:18:55;;;;;;;6.93;6.63;;;;;;;13.51;100.00;100809.13;5051112;28;20448;-61
2022/06/07 02:21:24;;;;;;;6.00;5.80;;;;;;;13.51;100.00;100807.31;5052076;28;20503;-60
2022/06/07 02:23:50;;;;;;;6.13;5.93;;;;;;;13.59;100.00;100802.84;5051855;28;20025;-60
2022/06/07 02:26:24;;;;;;;6.40;6.10;;;;;;;13.63;100.00;100807.63;5051536;28;20087;-60
2022/06/07 02:28:57;;;;;;;5.90;5.70;;;;;;;13.66;100.00;100809.09;5051982;28;20040;-60
2022/06/07 02:31:25;;;;;;;5.97;5.78;;;;;;;13.69;100.00;100806.06;5037961;28;20439;-60
2022/06/07 02:33:51;;;;;;;5.95;5.75;;;;;;;13.71;100.00;100804.03;5040017;28;20048;-60
2022/06/07 02:36:17;;;;;;;6.28;6.00;;;;;;;13.73;100.00;100807.31;5050593;28;20429;-61
2022/06/07 02:38:44;;;;;;;6.05;5.85;;;;;;;13.86;100.00;100823.47;5051136;28;20039;-61
2022/06/07 02:41:15;;;;;;;6.30;6.00;;;;;;;14.20;100.00;100822.81;5052023;28;20500;-61
2022/06/07 02:43:40;;;;;;;6.10;5.90;;;;;;;14.72;100.00;100810.13;5048017;28;20033;-61
2022/06/07 02:46:06;;;;;;;6.15;5.95;;;;;;;15.04;100.00;100817.50;5052197;28;20041;-61
2022/06/07 02:48:31;;;;;;;6.45;6.15;;;;;;;15.54;100.00;100825.34;5049638;28;20556;-61
2022/06/07 02:50:57;;;;;;;6.20;6.00;;;;;;;16.06;100.00;100821.22;5052107;28;20086;-61
2022/06/07 02:53:23;;;;;;;6.30;6.00;;;;;;;16.13;100.00;100825.56;5051121;28;20526;-61
2022/06/07 02:55:49;;;;;;;6.10;5.90;;;;;;;16.54;100.00;100822.69;5036684;28;20037;-62
2022/06/07 02:58:15;;;;;;;6.55;6.25;;;;;;;17.29;100.00;100833.13;5052392;28;20020;-62
2022/06/07 03:00:40;;;;;;;6.50;6.20;;;;;;;18.35;96.16;100827.19;5051550;28;20079;-61
2022/06/07 03:03:06;;;;;;;6.75;6.45;;;;;;;19.98;86.67;100837.50;5051623;28;20449;-61
2022/06/07 03:05:31;;;;;;;6.70;6.40;;;;;;;21.14;79.53;100830.59;5051020;28;20025;-61
2022/06/07 03:07:57;;;;;;;6.60;6.30;;;;;;;21.87;75.20;100848.03;5050285;28;20503;-61
2022/06/07 03:10:22;;;;;;;6.82;6.53;;;;;;;22.46;71.55;100840.44;5050109;28;20033;-61
2022/06/07 03:12:48;;;;;;;6.70;6.40;;;;;;;23.13;68.51;100843.91;5051445;28;20037;-61
2022/06/07 03:15:14;;;;;;;6.80;6.50;;;;;;;23.89;64.43;100844.06;5052078;28;20029;-61
2022/06/07 03:17:42;;;;;;;6.80;6.50;;;;;;;24.16;63.01;100848.63;5050503;28;20548;-61
2022/06/07 03:20:08;;;;;;;6.82;6.53;;;;;;;24.87;59.66;100857.38;5051833;28;20395;-61
2022/06/07 03:22:34;;;;;;;7.10;6.80;;;;;;;25.35;57.16;100859.03;5050797;28;20131;-61
2022/06/07 03:25:05;;;;;;;6.80;6.50;;;;;;;25.34;56.78;100856.59;5051561;28;20532;-61
2022/06/07 03:27:36;;;;;;;7.07;6.78;;;;;;;26.01;53.64;100857.66;5050296;28;20116;-61
2022/06/07 03:30:09;;;;;;;6.78;6.47;;;;;;;26.59;52.06;100848.19;5051526;28;20110;-60
2022/06/07 03:32:35;;;;;;;6.95;6.65;;;;;;;27.54;48.55;100855.56;5054469;28;20035;-60
2022/06/07 03:35:02;;;;;;;6.78;6.47;;;;;;;27.75;47.52;100856.31;5058426;28;20028;-61
2022/06/07 03:37:27;;;;;;;6.90;6.60;;;;;;;27.76;46.17;100849.75;5045455;28;20112;-60
2022/06/07 03:39:53;;;;;;;6.97;6.68;;;;;;;28.52;43.69;100859.34;5054217;28;20108;-61
2022/06/07 03:42:19;;;;;;;6.90;6.60;;;;;;;28.98;42.61;100845.28;5055404;28;20049;-61
2022/06/07 03:44:50;;;;;;;7.10;6.80;;;;;;;28.91;41.66;100862.00;5054247;28;20103;-61
2022/06/07 03:47:19;;;;;;;6.82;6.53;;;;;;;28.63;42.33;100849.94;5050905;28;20112;-60
2022/06/07 03:49:46;;;;;;;7.13;6.82;;;;;;;29.94;39.52;100857.72;5056244;28;20031;-61
2022/06/07 03:52:12;;;;;;;7.18;6.88;;;;;;;29.71;39.45;100853.13;5058868;28;20392;-61
2022/06/07 03:54:38;;;;;;;7.13;6.82;;;;;;;28.84;40.92;100847.84;5053184;28;20029;-63
2022/06/07 03:57:05;;;;;;;7.18;6.88;;;;;;;29.50;39.90;100854.50;5049428;28;20027;-61
2022/06/07 03:59:30;;;;;;;7.30;7.00;;;;;;;29.99;39.15;100856.84;5054322;28;20028;-61
2022/06/07 04:01:56;;;;;;;7.10;6.80;;;;;;;29.92;38.29;100854.47;5054233;28;20036;-61
2022/06/07 04:04:21;;;;;;;7.00;6.70;;;;;;;30.88;37.95;100847.75;5055070;28;20427;-61
2022/06/07 04:09:39;;;;;;;7.13;6.82;;;;;;;30.89;37.21;100841.13;5053557;28;20142;-60
2022/06/07 04:12:16;;;;;;;7.22;6.93;;;;;;;31.13;36.50;100835.47;5054539;28;20029;-60
2022/06/07 04:14:43;;;;;;;7.07;6.78;;;;;;;31.01;36.65;100836.78;5045191;28;20025;-61
2022/06/07 04:17:10;;;;;;;7.03;6.72;;;;;;;30.81;36.80;100829.78;5052032;28;20465;-61
2022/06/07 04:19:38;;;;;;;7.00;6.70;;;;;;;31.68;35.34;100838.97;5046310;28;20025;-61
2022/06/07 04:22:04;;;;;;;7.30;7.00;;;;;;;31.90;34.44;100830.81;5050077;28;20021;-61
2022/06/07 04:24:30;;;;;;;7.15;6.85;;;;;;;31.72;34.58;100833.69;5063235;28;20035;-61
2022/06/07 04:26:56;;;;;;;7.20;6.90;;;;;;;31.88;34.01;100832.25;5054591;28;20407;-61
2022/06/07 04:29:22;;;;;;;7.30;7.00;;;;;;;32.48;33.71;100840.13;5053302;28;20029;-61
2022/06/07 04:31:48;;;;;;;7.25;6.95;;;;;;;31.96;34.50;100827.97;5053279;28;20492;-69
2022/06/07 04:34:14;;;;;;;7.22;6.93;;;;;;;31.66;34.75;100830.25;5044141;28;20376;-61
2022/06/07 04:36:40;;;;;;;7.28;6.97;;;;;;;31.58;34.75;100836.44;5054059;28;20032;-62
2022/06/07 04:39:06;;;;;;;7.20;6.90;;;;;;;32.47;33.15;100838.53;5053922;28;20025;-62
2022/06/07 04:41:32;;;;;;;7.20;6.90;;;;;;;32.12;33.93;100826.47;5055096;28;20444;-61
2022/06/07 04:43:59;;;;;;;7.30;7.00;;;;;;;31.96;34.24;100823.28;5053651;28;20083;-61
2022/06/07 04:46:26;;;;;;;7.40;7.10;;;;;;;32.37;33.20;100834.09;5053023;28;20599;-60
2022/06/07 04:48:53;;;;;;;7.25;6.95;;;;;;;32.24;33.60;100828.63;5052199;28;20032;-62
2022/06/07 04:51:24;;;;;;;7.20;6.90;;;;;;;32.88;31.99;100832.75;5051759;28;20025;-60
2022/06/07 04:53:51;;;;;;;7.05;6.75;;;;;;;32.98;31.77;100842.69;5053185;28;20036;-61
2022/06/07 04:56:20;;;;;;;7.40;7.10;;;;;;;33.82;30.39;100844.31;5053206;28;20028;-61
2022/06/07 04:58:45;;;;;;;7.18;6.88;;;;;;;33.08;31.19;100845.13;5048023;28;20082;-61
2022/06/07 05:01:14;;;;;;;7.40;7.10;;;;;;;33.50;30.42;100851.91;5042763;28;20485;-61
2022/06/07 05:03:40;;;;;;;7.40;7.10;;;;;;;33.51;30.56;100845.28;5052849;28;20248;-60
2022/06/07 05:06:30;;;;;;;7.43;7.13;;;;;;;33.86;30.24;100849.97;5051365;28;20033;-61
2022/06/07 05:09:09;;;;;;;7.30;7.00;;;;;;;33.61;30.14;100849.66;5044172;28;20605;-61
2022/06/07 05:11:35;;;;;;;7.15;6.85;;;;;;;33.25;31.49;100845.16;5052970;28;20495;-62
2022/06/07 05:14:03;;;;;;;7.35;7.05;;;;;;;34.03;29.84;100850.84;5052759;28;20060;-60
2022/06/07 05:16:29;;;;;;;7.20;6.90;;;;;;;34.01;29.86;100852.31;5053607;28;20143;-60
2022/06/07 05:18:55;;;;;;;7.45;7.15;;;;;;;34.28;29.87;100854.69;5051291;28;20016;-63
2022/06/07 05:21:23;;;;;;;7.18;6.88;;;;;;;36.02;27.43;100851.16;5051666;28;20120;-63
2022/06/07 05:23:49;;;;;;;7.38;7.07;;;;;;;35.27;28.13;100843.53;5055172;28;20108;-63
2022/06/07 05:26:42;;;;;;;7.20;6.90;;;;;;;35.40;28.33;100841.66;5046465;28;20103;-63
2022/06/07 05:29:20;;;;;;;7.38;7.07;;;;;;;35.42;27.85;100848.50;5061052;28;20037;-62
2022/06/07 05:31:45;;;;;;;7.15;6.85;;;;;;;35.05;28.43;100858.41;5060723;28;20043;-63
2022/06/07 05:34:11;;;;;;;7.28;6.97;;;;;;;36.21;27.44;100859.75;5054239;28;20037;-63
2022/06/07 05:36:36;;;;;;;7.30;7.00;;;;;;;35.33;27.34;100860.69;5049431;28;20031;-63
2022/06/07 05:39:03;;;;;;;7.63;7.32;;;;;;;35.84;27.07;100858.75;5049604;28;20037;-63
2022/06/07 05:41:29;;;;;;;7.13;6.82;;;;;;;34.63;28.03;100862.91;5042777;28;20041;-62
2022/06/07 05:43:55;;;;;;;7.30;7.00;;;;;;;36.04;26.75;100862.66;5033769;28;20108;-59
2022/06/07 05:46:22;;;;;;;7.50;7.20;;;;;;;35.03;27.61;100865.38;5042800;28;20519;-60
2022/06/07 05:48:47;;;;;;;7.25;6.95;;;;;;;35.18;28.07;100853.78;5058675;28;20525;-61
2022/06/07 05:51:13;;;;;;;7.50;7.20;;;;;;;36.30;26.16;100862.44;5056434;28;20033;-61
2022/06/07 05:53:39;;;;;;;7.57;7.28;;;;;;;36.61;26.00;100862.78;5048394;28;20025;-61
2022/06/07 05:56:11;;;;;;;7.35;7.05;;;;;;;37.08;25.08;100865.16;5042161;28;20025;-57
2022/06/07 05:58:37;;;;;;;7.50;7.20;;;;;;;36.10;25.71;100862.13;5054458;28;20083;-61
2022/06/07 06:01:04;;;;;;;7.55;7.25;;;;;;;37.45;23.88;100860.41;5039048;28;20076;-61
2022/06/07 06:03:30;;;;;;;7.68;7.38;;;;;;;38.22;23.64;100860.34;5055513;28;20033;-62
2022/06/07 06:05:55;;;;;;;7.47;7.18;;;;;;;37.98;23.59;100855.72;5052032;28;20039;-61
2022/06/07 06:11:17;;;;;;;7.57;7.28;;;;;;;37.67;24.14;100848.03;5043322;28;20494;-61
2022/06/07 06:13:43;;;;;;;7.28;6.97;;;;;;;38.25;23.01;100845.00;5042314;28;20029;-62
2022/06/07 06:16:14;;;;;;;7.53;7.22;;;;;;;38.26;23.25;100852.13;5050867;28;20028;-61
2022/06/07 06:18:42;;;;;;;7.18;6.88;;;;;;;38.25;22.25;100850.53;5054344;28;20124;-62
2022/06/07 06:21:08;;;;;;;7.47;7.18;;;;;;;38.59;22.19;100844.31;5043577;28;20468;-61
2022/06/07 06:23:35;;;;;;;7.38;7.07;;;;;;;38.16;23.06;100843.16;5048419;28;20494;-61
2022/06/07 06:26:00;;;;;;;7.25;6.95;;;;;;;37.37;23.34;100838.41;5057533;28;20059;-60
2022/06/07 06:28:26;;;;;;;6.97;6.68;;;;;;;37.46;23.98;100836.31;5042428;28;20029;-60
2022/06/07 06:30:53;;;;;;;7.20;6.90;;;;;;;38.55;22.43;100831.53;5037816;28;20028;-61
2022/06/07 06:33:19;;;;;;;7.40;7.10;;;;;;;39.04;21.76;100840.31;5047265;28;20051;-61
2022/06/07 06:35:51;;;;;;;7.50;7.20;;;;;;;38.68;22.03;100833.06;5049772;28;20460;-62
2022/06/07 06:38:17;;;;;;;7.40;7.10;;;;;;;38.44;22.37;100834.03;5046564;28;20100;-59
2022/06/07 06:40:45;;;;;;;7.50;7.20;;;;;;;38.16;22.71;100829.31;5044705;28;20155;-60
2022/06/07 06:43:11;;;;;;;7.80;7.50;;;;;;;39.62;21.05;100823.84;5043595;28;20032;-61
2022/06/07 06:45:38;;;;;;;7.30;7.00;;;;;;;39.10;21.63;100829.75;5046057;28;20128;-61
2022/06/07 06:48:03;;;;;;;7.28;6.97;;;;;;;37.29;22.29;100823.53;5045849;28;20036;-61
2022/06/07 06:50:29;;;;;;;7.50;7.20;;;;;;;38.37;21.27;100825.53;5048843;28;20484;-61
2022/06/07 06:52:55;;;;;;;7.30;7.00;;;;;;;35.13;23.87;100823.66;5047158;28;20537;-61
2022/06/07 06:55:21;;;;;;;7.40;7.10;;;;;;;36.24;23.84;100823.97;5041906;28;20037;-61
2022/06/07 06:57:48;;;;;;;7.63;7.32;;;;;;;38.36;20.77;100827.50;5036384;28;20033;-61
2022/06/07 07:00:15;;;;;;;7.38;7.07;;;;;;;36.95;21.36;100820.13;5058522;28;20029;-61
2022/06/07 07:02:41;;;;;;;7.47;7.18;;;;;;;37.50;21.72;100815.91;5035565;28;20514;-60
2022/06/07 07:05:07;;;;;;;7.40;7.10;;;;;;;39.12;18.82;100822.66;5050828;28;20119;-61
2022/06/07 07:07:32;;;;;;;7.45;7.15;;;;;;;38.21;19.92;100824.69;5049558;28;20068;-61
2022/06/07 07:09:58;;;;;;;7.40;7.10;;;;;;;37.88;19.90;100817.44;5043564;28;20071;-60
2022/06/07 07:12:24;;;;;;;7.40;7.10;;;;;;;37.54;19.27;100816.03;5042883;28;20041;-61
2022/06/07 07:14:49;;;;;;;7.53;7.22;;;;;;;37.27;20.23;100823.88;5050625;28;20017;-61
2022/06/07 07:17:15;;;;;;;7.20;6.90;;;;;;;36.59;20.59;100812.56;5054748;28;20524;-61
2022/06/07 07:19:40;;;;;;;7.07;6.78;;;;;;;35.88;21.29;100819.09;5049506;28;20029;-61
2022/06/07 07:22:06;;;;;;;7.20;6.90;;;;;;;34.33;22.71;100813.22;5051895;28;20108;-61
2022/06/07 07:24:32;;;;;;;7.25;6.95;;;;;;;35.05;22.88;100805.22;5056153;28;20104;-61
2022/06/07 07:26:58;;;;;;;7.18;6.88;;;;;;;35.41;21.80;100796.41;5050902;28;20047;-62
2022/06/07 07:29:24;;;;;;;7.18;6.88;;;;;;;36.09;21.30;100794.22;5044080;28;20384;-63
2022/06/07 07:31:50;;;;;;;7.28;6.97;;;;;;;34.76;21.78;100806.78;5058969;28;20032;-62
2022/06/07 07:34:18;;;;;;;7.20;6.90;;;;;;;32.53;24.17;100801.53;5058706;28;20024;-62
2022/06/07 07:36:48;;;;;;;7.13;6.82;;;;;;;33.23;24.39;100800.69;5052294;28;20051;-61
2022/06/07 07:39:15;;;;;;;6.97;6.68;;;;;;;30.61;26.90;100790.97;5052280;28;20052;-60
2022/06/07 07:41:42;;;;;;;7.00;6.70;;;;;;;33.16;23.66;100792.09;5040753;28;20496;-61
2022/06/07 07:44:12;;;;;;;7.20;6.90;;;;;;;29.84;27.61;100797.72;5049037;28;20071;-61
2022/06/07 07:46:40;;;;;;;7.30;7.00;;;;;;;29.20;27.60;100787.38;5041642;28;20135;-61
2022/06/07 07:49:11;;;;;;;7.30;7.00;;;;;;;29.10;28.73;100797.31;5052617;28;20116;-60
2022/06/07 07:51:39;;;;;;;7.50;7.20;;;;;;;29.94;26.77;100791.25;5042478;28;20028;-61
2022/06/07 07:54:08;;;;;;;7.50;7.20;;;;;;;27.43;30.69;100785.88;5051991;28;20033;-61
2022/06/07 07:56:35;;;;;;;7.10;6.80;;;;;;;29.01;26.55;100792.78;5054527;28;20101;-60
2022/06/07 07:59:01;;;;;;;7.40;7.10;;;;;;;29.68;26.84;100782.66;5050449;28;20052;-60
2022/06/07 08:01:28;;;;;;;7.50;7.20;;;;;;;30.42;25.91;100785.56;5046585;28;20190;-62
2022/06/07 08:03:57;;;;;;;7.20;6.90;;;;;;;26.57;28.55;100787.75;5041778;28;20025;-63
2022/06/07 08:06:24;;;;;;;6.90;6.60;;;;;;;29.43;26.65;100791.97;5048915;28;20036;-63
2022/06/07 08:08:52;;;;;;;7.40;7.10;;;;;;;27.68;29.19;100782.19;5054242;28;20036;-61
2022/06/07 08:11:20;;;;;;;7.22;6.93;;;;;;;29.43;27.48;100784.59;5047865;28;20021;-63
2022/06/07 08:13:46;;;;;;;7.60;7.30;;;;;;;30.29;26.81;100781.69;5049547;28;20107;-62
2022/06/07 08:16:13;;;;;;;7.30;7.00;;;;;;;30.44;26.06;100797.84;5044194;28;20147;-62
2022/06/07 08:18:39;;;;;;;7.30;7.00;;;;;;;26.95;29.20;100780.03;5043333;28;20021;-62
2022/06/07 08:21:08;;;;;;;7.10;6.80;;;;;;;28.29;27.79;100787.22;5049946;28;20029;-62
2022/06/07 08:23:36;;;;;;;7.00;6.70;;;;;;;29.99;25.34;100778.31;5058813;28;20080;-62
2022/06/07 08:26:04;;;;;;;7.25;6.95;;;;;;;29.43;26.18;100787.31;5058976;28;20024;-61
2022/06/07 08:28:30;;;;;;;7.03;6.72;;;;;;;27.75;28.82;100775.34;5038379;28;20387;-61
2022/06/07 08:30:55;;;;;;;7.00;6.70;;;;;;;28.70;26.92;100778.63;5048515;28;20107;-62
2022/06/07 08:38:53;;;;;;;6.82;6.53;;;;;;;27.92;26.66;100777.69;5048904;28;19924;-62
2022/06/07 08:41:34;;;;;;;7.07;6.78;;;;;;;28.39;26.69;100775.41;5040362;28;20017;-63
2022/06/07 08:44:12;;;;;;;7.07;6.78;;;;;;;28.40;27.68;100768.84;5039532;28;20140;-62
2022/06/07 08:46:39;;;;;;;7.00;6.70;;;;;;;27.61;28.33;100774.31;5047531;28;20503;-62
2022/06/07 08:49:06;;;;;;;7.10;6.80;;;;;;;26.99;28.82;100767.50;5054220;28;20024;-62
2022/06/07 08:52:16;;;;;;;7.15;6.85;;;;;;;28.83;25.23;100767.03;5042300;28;20055;-62
2022/06/07 08:54:42;;;;;;;7.68;7.38;;;;;;;28.48;26.53;100774.50;5022056;28;20041;-61
2022/06/07 08:57:24;;;;;;;7.30;7.00;;;;;;;30.51;23.50;100772.81;5050297;28;20025;-63
2022/06/07 09:00:19;;;;;;;7.43;7.13;;;;;;;28.39;27.75;100778.94;5069476;28;20652;-63
2022/06/07 09:03:12;;;;;;;7.30;7.00;;;;;;;29.42;27.18;100766.56;5033268;28;20076;-64
2022/06/07 09:05:38;;;;;;;7.25;6.95;;;;;;;29.37;26.56;100766.63;5040803;28;20016;-63
2022/06/07 09:08:03;;;;;;;7.30;7.00;;;;;;;30.38;25.18;100773.59;5045491;28;20035;-63
2022/06/07 09:13:16;;;;;;;6.75;6.45;;;;;;;29.40;26.19;100766.06;5046286;28;20456;-63
2022/06/07 09:15:45;;;;;;;7.20;6.90;;;;;;;31.11;24.42;100750.81;5044273;28;20052;-63
2022/06/07 09:18:14;;;;;;;7.40;7.10;;;;;;;29.99;25.67;100747.41;5040928;28;20036;-63
2022/06/07 09:20:46;;;;;;;7.15;6.85;;;;;;;30.07;25.58;100740.44;5040925;28;20567;-63
2022/06/07 09:23:15;;;;;;;7.40;7.10;;;;;;;29.76;26.15;100740.16;5032472;28;20051;-63
2022/06/07 09:25:48;;;;;;;7.20;6.90;;;;;;;28.52;27.57;100748.25;5048609;28;20468;-62
2022/06/07 09:28:23;;;;;;;6.75;6.45;;;;;;;27.44;28.51;100739.25;5046998;28;20052;-61
2022/06/07 09:31:05;;;;;;;6.90;6.60;;;;;;;25.62;31.71;100727.63;5052210;28;20363;-61
2022/06/07 09:33:36;;;;;;;6.93;6.63;;;;;;;26.24;31.86;100728.50;5050779;28;20691;-61
2022/06/07 09:36:27;;;;;;;6.90;6.60;;;;;;;28.07;28.36;100730.38;5061985;28;20159;-61
2022/06/07 09:38:56;;;;;;;6.75;6.45;;;;;;;28.42;28.16;100728.44;5042642;28;20070;-62
2022/06/07 09:41:40;;;;;;;7.00;6.70;;;;;;;27.96;28.21;100735.09;5052480;28;20485;-60
2022/06/07 09:44:16;;;;;;;6.75;6.45;;;;;;;29.21;27.19;100717.97;5052950;28;20025;-61
2022/06/07 09:46:43;;;;;;;6.45;6.15;;;;;;;28.75;27.43;100722.06;5052801;28;20053;-60
2022/06/07 09:49:29;;;;;;;6.80;6.50;;;;;;;28.73;27.06;100712.56;5052736;28;20051;-60
2022/06/07 09:52:10;;;;;;;6.70;6.40;;;;;;;28.88;27.04;100715.91;5046669;28;20021;-60
2022/06/07 09:54:41;;;;;;;7.28;6.97;;;;;;;28.97;26.28;100713.34;5047213;28;20029;-61
2022/06/07 09:57:21;;;;;;;6.90;6.60;;;;;;;28.16;29.08;100725.13;5050515;28;20032;-62
2022/06/07 10:00:04;;;;;;;6.75;6.45;;;;;;;27.79;28.84;100715.63;5052899;28;20029;-62
2022/06/07 10:02:45;;;;;;;6.53;6.22;;;;;;;27.34;29.93;100722.19;5041354;28;20032;-59
2022/06/07 10:05:13;;;;;;;6.68;6.38;;;;;;;27.71;29.67;100708.06;5048513;28;20087;-61
2022/06/07 10:08:04;;;;;;;6.70;6.40;;;;;;;28.64;28.57;100712.34;5051759;28;20024;-61
2022/06/07 10:10:40;;;;;;;6.82;6.53;;;;;;;28.22;28.27;100713.88;5049602;28;20024;-61
2022/06/07 10:13:22;;;;;;;6.72;6.43;;;;;;;27.97;29.35;100698.53;5052387;28;20032;-61
2022/06/07 10:15:56;;;;;;;6.65;6.35;;;;;;;27.35;30.26;100699.28;5051364;28;20021;-61
2022/06/07 10:18:28;;;;;;;6.63;6.32;;;;;;;27.29;30.57;100703.13;5052135;28;20025;-60
2022/06/07 10:21:08;;;;;;;6.70;6.40;;;;;;;27.70;31.03;100704.53;5052220;28;20371;-61
2022/06/07 10:23:46;;;;;;;6.82;6.53;;;;;;;27.56;30.66;100691.78;5032179;28;20116;-61
2022/06/07 10:26:28;;;;;;;6.80;6.50;;;;;;;26.54;31.49;100690.38;5038460;28;20048;-60
2022/06/07 10:29:06;;;;;;;6.65;6.35;;;;;;;26.66;31.84;100684.59;5050857;28;20487;-61
2022/06/07 10:31:43;;;;;;;6.80;6.50;;;;;;;27.11;31.52;100693.72;5042472;28;20038;-61
2022/06/07 10:34:13;;;;;;;6.65;6.35;;;;;;;25.99;33.53;100683.91;5049389;28;20025;-62
2022/06/07 10:36:44;;;;;;;6.63;6.32;;;;;;;25.48;33.92;100674.91;5050173;28;20492;-61
2022/06/07 10:39:36;;;;;;;6.72;6.43;;;;;;;27.04;31.71;100671.38;5051751;28;20045;-62
2022/06/07 10:42:40;;;;;;;6.88;6.57;;;;;;;26.03;33.04;100676.84;5043117;28;20028;-62
2022/06/07 10:45:26;;;;;;;6.85;6.55;;;;;;;25.64;33.07;100668.41;5038902;28;20099;-62
2022/06/07 10:48:01;;;;;;;6.97;6.68;;;;;;;26.18;32.50;100660.50;5050610;28;20388;-60
2022/06/07 10:50:32;;;;;;;6.70;6.40;;;;;;;26.80;30.99;100652.97;5047683;28;20087;-60
2022/06/07 10:53:22;;;;;;;7.00;6.70;;;;;;;27.16;30.99;100650.91;5063713;28;20020;-61
2022/06/07 10:56:08;;;;;;;6.68;6.38;;;;;;;27.27;30.55;100659.84;5052837;28;20025;-61
2022/06/07 10:58:42;;;;;;;6.78;6.47;;;;;;;26.87;31.14;100658.13;5051983;28;20100;-60
2022/06/07 11:01:24;;;;;;;6.80;6.50;;;;;;;26.21;31.81;100644.72;5050458;28;20076;-60
2022/06/07 11:09:19;;;;;;;6.75;6.45;;;;;;;26.47;31.60;100650.94;5052935;28;20029;-59
2022/06/07 11:09:48;;;;;;;6.70;6.40;;;;;;;26.11;32.89;100646.38;5062667;28;20055;-60
2022/06/07 11:12:24;;;;;;;6.78;6.47;;;;;;;26.84;30.83;100639.63;5039809;28;20446;-61
2022/06/07 11:15:02;;;;;;;7.40;7.10;;;;;;;27.87;29.32;100643.31;5046163;28;20054;-61
2022/06/07 11:17:47;;;;;;;7.00;6.70;;;;;;;27.57;29.51;100626.09;5033004;28;20040;-61
2022/06/07 11:20:18;;;;;;;7.03;6.72;;;;;;;27.08;29.75;100634.34;5052391;28;20043;-61
2022/06/07 11:23:06;;;;;;;6.65;6.35;;;;;;;27.29;29.66;100629.59;5041600;28;20043;-60
2022/06/07 11:25:41;;;;;;;6.95;6.65;;;;;;;27.69;29.28;100628.47;5036100;28;20617;-62
2022/06/07 11:28:25;;;;;;;6.85;6.55;;;;;;;27.12;29.02;100630.78;5037429;28;20037;-62
2022/06/07 11:30:53;;;;;;;6.90;6.60;;;;;;;26.64;31.66;100625.03;5036269;28;20056;-61
2022/06/07 11:33:41;;;;;;;6.70;6.40;;;;;;;26.07;32.64;100625.44;5037997;28;20471;-61
2022/06/07 11:36:13;;;;;;;6.90;6.60;;;;;;;26.63;32.18;100626.13;5039618;28;20028;-60
2022/06/07 11:38:56;;;;;;;6.95;6.65;;;;;;;26.36;30.94;100614.75;5044364;28;20032;-59
2022/06/07 11:41:37;;;;;;;6.87;6.57;;;;;;;26.47;32.00;100616.41;5051865;28;20044;-60
2022/06/07 11:44:29;;;;;;;7.00;6.70;;;;;;;27.14;28.53;100614.97;5040333;28;20048;-61
2022/06/07 11:47:02;;;;;;;6.78;6.47;;;;;;;27.10;27.65;100604.91;5037895;28;20068;-62
2022/06/07 11:49:28;;;;;;;6.80;6.50;;;;;;;27.29;27.48;100605.06;5045596;28;20035;-60
2022/06/07 11:52:13;;;;;;;6.90;6.60;;;;;;;27.73;27.14;100599.53;5039652;28;20032;-61
2022/06/07 11:54:51;;;;;;;6.90;6.60;;;;;;;27.56;27.68;100612.75;5040852;28;20624;-60
2022/06/07 11:57:17;;;;;;;6.75;6.45;;;;;;;27.24;27.86;100609.44;5037696;28;20595;-60
2022/06/07 11:59:54;;;;;;;6.88;6.57;;;;;;;27.27;28.11;100616.25;5048132;28;20033;-59
2022/06/07 12:02:36;;;;;;;7.00;6.70;;;;;;;27.07;27.87;100617.19;5045975;28;20043;-61